createdAt,value
2024-03-10T00:01:36.555Z,0.61
2024-03-10T00:04:03.367Z,0.58
2024-03-10T00:06:30.076Z,0.60
2024-03-10T00:08:56.922Z,0.44
2024-03-10T00:11:23.777Z,0.48
2024-03-10T00:13:51.091Z,0.40
2024-03-10T00:16:18.146Z,0.48
2024-03-10T00:18:44.861Z,0.44
2024-03-10T00:21:11.732Z,0.40
2024-03-10T00:23:39.144Z,0.30
2024-03-10T00:26:07.289Z,0.30
2024-03-10T00:28:37.784Z,0.24
2024-03-10T00:31:04.882Z,0.32
2024-03-10T00:33:31.822Z,0.28
2024-03-10T00:35:58.991Z,0.24
2024-03-10T00:38:28.868Z,0.12
2024-03-10T00:40:56.311Z,0.17
2024-03-10T00:43:23.353Z,0.19
2024-03-10T00:45:51.414Z,0.12
2024-03-10T00:48:22.083Z,0.06
2024-03-10T00:50:48.930Z,0.10
2024-03-10T00:53:16.179Z,0.00
2024-03-10T00:55:46.149Z,0.01
2024-03-10T00:58:13.247Z,-0.05
2024-03-10T01:00:40.266Z,-0.15
2024-03-10T01:03:12.458Z,-0.08
2024-03-10T01:05:39.450Z,-0.10
2024-03-10T01:08:06.512Z,-0.14
2024-03-10T01:10:33.308Z,-0.27
2024-03-10T01:13:00.110Z,-0.29
2024-03-10T01:15:26.876Z,-0.29
2024-03-10T01:17:54.635Z,-0.16
2024-03-10T01:20:22.065Z,-0.19
2024-03-10T01:22:49.081Z,-0.13
2024-03-10T01:25:15.833Z,-0.11
2024-03-10T01:27:44.683Z,-0.13
2024-03-10T01:30:12.061Z,-0.11
2024-03-10T01:32:38.967Z,-0.13
2024-03-10T01:35:07.728Z,-0.16
2024-03-10T01:37:35.258Z,-0.17
2024-03-10T01:40:06.618Z,-0.21
2024-03-10T01:42:34.142Z,-0.26
2024-03-10T01:45:05.352Z,-0.21
2024-03-10T01:47:32.724Z,-0.26
2024-03-10T01:49:59.608Z,-0.32
2024-03-10T01:52:27.741Z,-0.22
2024-03-10T01:54:57.240Z,-0.21
2024-03-10T01:57:25.969Z,-0.29
2024-03-10T01:59:57.073Z,-0.22
2024-03-10T02:02:24.323Z,-0.21
2024-03-10T02:04:51.230Z,-0.19
2024-03-10T02:07:18.485Z,-0.20
2024-03-10T02:09:48.422Z,-0.15
2024-03-10T02:12:16.944Z,-0.12
2024-03-10T02:14:56.964Z,-0.11
2024-03-10T02:17:23.717Z,-0.13
2024-03-10T02:19:51.598Z,-0.07
2024-03-10T02:22:18.387Z,-0.10
2024-03-10T02:24:49.069Z,-0.06
2024-03-10T02:27:18.094Z,-0.04
2024-03-10T02:30:02.007Z,-0.03
2024-03-10T02:32:47.712Z,-0.05
2024-03-10T02:35:33.828Z,-0.05
2024-03-10T02:38:19.266Z,-0.08
2024-03-10T02:41:04.615Z,-0.07
2024-03-10T02:43:50.359Z,-0.08
2024-03-10T02:46:35.575Z,-0.06
2024-03-10T02:49:02.591Z,-0.12
2024-03-10T02:51:29.364Z,-0.07
2024-03-10T02:53:56.170Z,-0.07
2024-03-10T02:56:26.498Z,-0.13
2024-03-10T02:58:53.438Z,-0.16
2024-03-10T03:01:22.753Z,-0.13
2024-03-10T03:03:50.994Z,-0.14
2024-03-10T03:06:17.723Z,-0.18
2024-03-10T03:08:44.798Z,-0.21
2024-03-10T03:11:11.957Z,-0.18
2024-03-10T03:13:38.691Z,-0.19
2024-03-10T03:16:06.789Z,-0.23
2024-03-10T03:18:34.311Z,-0.27
2024-03-10T03:21:01.026Z,-0.25
2024-03-10T03:23:28.241Z,-0.27
2024-03-10T03:25:55.072Z,-0.20
2024-03-10T03:28:21.967Z,-0.21
2024-03-10T03:30:49.268Z,-0.28
2024-03-10T03:33:16.088Z,-0.25
2024-03-10T03:35:42.828Z,-0.29
2024-03-10T03:38:11.129Z,-0.33
2024-03-10T03:40:37.969Z,-0.25
2024-03-10T03:43:04.764Z,-0.26
2024-03-10T03:45:32.512Z,-0.25
2024-03-10T03:47:59.366Z,-0.24
2024-03-10T03:50:27.774Z,-0.20
2024-03-10T03:52:54.719Z,-0.21
2024-03-10T03:55:22.303Z,-0.22
2024-03-10T03:57:49.134Z,-0.28
2024-03-10T04:00:17.280Z,-0.19
2024-03-10T04:02:47.818Z,-0.17
2024-03-10T04:05:15.481Z,-0.19
2024-03-10T04:07:43.279Z,-0.17
2024-03-10T04:10:13.298Z,-0.20
2024-03-10T04:12:40.324Z,-0.20
2024-03-10T04:15:07.686Z,-0.21
2024-03-10T04:17:35.301Z,-0.17
2024-03-10T04:20:02.267Z,-0.15
2024-03-10T04:22:29.337Z,-0.13
2024-03-10T04:24:56.378Z,-0.14
2024-03-10T04:27:25.269Z,-0.26
2024-03-10T04:29:52.189Z,-0.15
2024-03-10T04:32:19.112Z,-0.17
2024-03-10T04:34:47.791Z,-0.13
2024-03-10T04:37:14.613Z,-0.08
2024-03-10T04:39:41.536Z,-0.10
2024-03-10T04:42:09.088Z,-0.13
2024-03-10T04:44:35.878Z,-0.22
2024-03-10T04:47:02.973Z,-0.13
2024-03-10T04:49:29.771Z,-0.18
2024-03-10T04:51:56.506Z,-0.10
2024-03-10T04:54:23.214Z,-0.09
2024-03-10T04:56:50.171Z,-0.14
2024-03-10T04:59:17.358Z,-0.10
2024-03-10T05:01:44.286Z,-0.03
2024-03-10T05:04:11.266Z,0.04
2024-03-10T05:06:38.722Z,0.03
2024-03-10T05:09:05.650Z,0.12
2024-03-10T05:11:32.530Z,0.07
2024-03-10T05:14:00.285Z,0.18
2024-03-10T05:16:27.593Z,0.19
2024-03-10T05:18:55.901Z,0.18
2024-03-10T05:21:26.200Z,0.28
2024-03-10T05:23:54.512Z,0.29
2024-03-10T05:26:21.355Z,0.31
2024-03-10T05:28:48.934Z,0.43
2024-03-10T05:31:34.231Z,0.50
2024-03-10T05:34:02.582Z,0.58
2024-03-10T05:36:30.275Z,0.47
2024-03-10T05:38:57.106Z,0.67
2024-03-10T05:41:24.259Z,0.71
2024-03-10T05:43:51.158Z,0.79
2024-03-10T05:46:17.987Z,0.81
2024-03-10T05:48:46.517Z,0.90
2024-03-10T05:51:14.215Z,0.93
2024-03-10T05:53:41.768Z,0.90
2024-03-10T05:56:09.686Z,1.08
2024-03-10T05:58:36.690Z,1.13
2024-03-10T06:01:03.635Z,1.28
2024-03-10T06:03:30.568Z,1.35
2024-03-10T06:06:00.805Z,1.44
2024-03-10T06:08:27.963Z,1.45
2024-03-10T06:10:55.472Z,1.63
2024-03-10T06:13:22.388Z,1.64
2024-03-10T06:15:49.361Z,1.77
2024-03-10T06:18:33.351Z,1.77
2024-03-10T06:21:18.649Z,1.84
2024-03-10T06:24:04.404Z,1.94
2024-03-10T06:26:32.610Z,2.03
2024-03-10T06:29:02.020Z,2.00
2024-03-10T06:31:29.098Z,2.12
2024-03-10T06:33:55.810Z,2.29
2024-03-10T06:36:23.195Z,2.42
2024-03-10T06:38:49.921Z,2.48
2024-03-10T06:41:16.734Z,2.64
2024-03-10T06:43:44.459Z,2.76
2024-03-10T06:46:11.240Z,2.88
2024-03-10T06:48:38.149Z,3.00
2024-03-10T06:51:07.131Z,3.06
2024-03-10T06:53:34.451Z,3.24
2024-03-10T06:56:02.553Z,3.38
2024-03-10T06:58:30.935Z,3.44
2024-03-10T07:00:59.272Z,3.43
2024-03-10T07:03:26.207Z,3.70
2024-03-10T07:05:55.911Z,3.80
2024-03-10T07:08:23.143Z,3.92
2024-03-10T07:10:50.134Z,4.00
2024-03-10T07:13:19.716Z,4.13
2024-03-10T07:15:47.885Z,4.24
2024-03-10T07:18:17.977Z,4.37
2024-03-10T07:20:46.686Z,4.47
2024-03-10T07:23:14.516Z,4.65
2024-03-10T07:25:41.478Z,4.85
2024-03-10T07:28:08.250Z,5.03
2024-03-10T07:30:35.566Z,5.26
2024-03-10T07:33:03.202Z,5.52
2024-03-10T07:35:30.119Z,5.78
2024-03-10T07:37:57.122Z,5.90
2024-03-10T07:40:25.237Z,6.21
2024-03-10T07:42:52.057Z,6.41
2024-03-10T07:45:19.301Z,6.71
2024-03-10T07:47:47.961Z,6.92
2024-03-10T07:50:16.603Z,7.08
2024-03-10T07:52:46.256Z,7.29
2024-03-10T07:55:13.181Z,7.56
2024-03-10T07:57:40.980Z,7.72
2024-03-10T08:00:12.806Z,7.98
2024-03-10T08:02:42.617Z,8.35
2024-03-10T08:05:13.859Z,8.61
2024-03-10T08:07:43.608Z,8.87
2024-03-10T08:10:15.360Z,9.08
2024-03-10T08:12:46.690Z,9.24
2024-03-10T08:15:14.371Z,9.58
2024-03-10T08:17:42.829Z,9.71
2024-03-10T08:20:15.430Z,9.83
2024-03-10T08:22:44.060Z,10.12
2024-03-10T08:25:11.917Z,10.33
2024-03-10T08:27:38.760Z,10.56
2024-03-10T08:30:11.190Z,10.75
2024-03-10T08:32:38.912Z,10.87
2024-03-10T08:35:14.452Z,11.08
2024-03-10T08:37:46.224Z,11.21
2024-03-10T08:40:14.061Z,11.31
2024-03-10T08:42:44.961Z,11.48
2024-03-10T08:45:12.992Z,11.66
2024-03-10T08:47:45.029Z,11.80
2024-03-10T08:50:12.989Z,11.97
2024-03-10T08:52:40.846Z,12.09
2024-03-10T08:55:16.769Z,12.29
2024-03-10T08:57:44.626Z,12.46
2024-03-10T09:00:14.495Z,12.70
2024-03-10T09:02:42.135Z,12.92
2024-03-10T09:05:09.624Z,13.10
2024-03-10T09:07:37.143Z,13.34
2024-03-10T09:10:06.379Z,13.48
2024-03-10T09:12:34.307Z,13.52
2024-03-10T09:15:01.615Z,13.62
2024-03-10T09:17:28.425Z,13.85
2024-03-10T09:19:55.287Z,13.93
2024-03-10T09:22:22.056Z,13.76
2024-03-10T09:24:51.877Z,13.92
2024-03-10T09:27:20.590Z,13.98
2024-03-10T09:29:48.659Z,14.09
2024-03-10T09:32:21.502Z,14.12
2024-03-10T09:34:48.771Z,14.19
2024-03-10T09:37:15.742Z,14.32
2024-03-10T09:39:42.551Z,14.41
2024-03-10T09:42:09.705Z,14.53
2024-03-10T09:44:37.655Z,14.70
2024-03-10T09:47:07.843Z,14.88
2024-03-10T09:49:35.181Z,15.00
2024-03-10T09:52:03.329Z,15.14
2024-03-10T09:54:30.363Z,15.20
2024-03-10T09:56:57.303Z,15.28
2024-03-10T09:59:48.035Z,15.50
2024-03-10T10:02:33.468Z,15.61
2024-03-10T10:05:04.372Z,15.68
2024-03-10T10:07:32.678Z,15.70
2024-03-10T10:10:01.284Z,15.85
2024-03-10T10:12:29.452Z,15.80
2024-03-10T10:14:56.595Z,15.83
2024-03-10T10:17:33.776Z,15.90
2024-03-10T10:20:01.017Z,16.00
2024-03-10T10:22:27.925Z,16.03
2024-03-10T10:25:08.673Z,16.09
2024-03-10T10:27:55.446Z,16.21
2024-03-10T10:30:28.651Z,16.16
2024-03-10T10:33:08.377Z,16.21
2024-03-10T10:35:44.182Z,16.14
2024-03-10T10:38:15.068Z,16.18
2024-03-10T10:40:52.655Z,16.24
2024-03-10T10:43:19.704Z,16.34
2024-03-10T10:45:49.640Z,16.46
2024-03-10T10:48:20.486Z,16.53
2024-03-10T10:50:49.478Z,16.64
2024-03-10T10:53:17.193Z,16.67
2024-03-10T10:55:46.978Z,16.69
2024-03-10T10:58:18.299Z,16.59
2024-03-10T11:00:52.955Z,16.60
2024-03-10T11:03:25.887Z,16.64
2024-03-10T11:06:07.595Z,16.77
2024-03-10T11:08:36.554Z,16.77
2024-03-10T11:11:04.767Z,16.76
2024-03-10T11:13:31.769Z,16.63
2024-03-10T11:16:11.183Z,16.68
2024-03-10T11:18:39.572Z,16.55
2024-03-10T11:21:08.561Z,16.52
2024-03-10T11:23:41.849Z,16.62
2024-03-10T11:26:13.907Z,16.67
2024-03-10T11:28:51.979Z,16.53
2024-03-10T11:31:38.439Z,16.52
2024-03-10T11:34:08.169Z,16.53
2024-03-10T11:36:39.217Z,16.59
2024-03-10T11:39:08.712Z,16.64
2024-03-10T11:41:35.750Z,16.64
2024-03-10T11:44:02.777Z,16.81
2024-03-10T11:46:34.726Z,16.79
2024-03-10T11:49:04.743Z,16.79
2024-03-10T11:51:36.284Z,16.72
2024-03-10T11:54:14.551Z,16.71
2024-03-10T11:56:44.877Z,16.74
2024-03-10T11:59:12.753Z,16.89
2024-03-10T12:01:41.114Z,17.09
2024-03-10T12:04:09.938Z,17.26
2024-03-10T12:06:37.848Z,17.37
2024-03-10T12:09:14.240Z,17.37
2024-03-10T12:11:43.345Z,17.24
2024-03-10T12:14:12.611Z,17.17
2024-03-10T12:16:49.627Z,17.25
2024-03-10T12:19:17.733Z,17.27
2024-03-10T12:21:47.980Z,17.36
2024-03-10T12:24:18.018Z,17.48
2024-03-10T12:26:45.496Z,17.61
2024-03-10T12:29:13.797Z,17.69
2024-03-10T12:31:40.966Z,17.67
2024-03-10T12:34:09.171Z,17.64
2024-03-10T12:36:36.990Z,17.58
2024-03-10T12:39:07.676Z,17.54
2024-03-10T12:41:34.600Z,17.37
2024-03-10T12:44:02.548Z,17.35
2024-03-10T12:46:30.068Z,17.23
2024-03-10T12:48:56.881Z,17.10
2024-03-10T12:51:25.452Z,17.07
2024-03-10T12:53:55.299Z,17.07
2024-03-10T12:56:24.044Z,17.05
2024-03-10T12:58:53.172Z,17.02
2024-03-10T13:01:20.166Z,17.00
2024-03-10T13:03:46.974Z,16.91
2024-03-10T13:06:16.028Z,16.92
2024-03-10T13:08:44.725Z,16.89
2024-03-10T13:11:14.964Z,16.93
2024-03-10T13:13:42.410Z,16.99
2024-03-10T13:16:10.456Z,17.12
2024-03-10T13:18:37.976Z,17.28
2024-03-10T13:21:05.089Z,17.27
2024-03-10T13:23:31.863Z,17.26
2024-03-10T13:25:58.709Z,17.14
2024-03-10T13:28:25.480Z,17.14
2024-03-10T13:30:52.388Z,17.02
2024-03-10T13:33:19.868Z,16.97
2024-03-10T13:35:47.248Z,16.96
2024-03-10T13:38:14.177Z,17.00
2024-03-10T13:40:40.958Z,17.01
2024-03-10T13:43:08.028Z,17.04
2024-03-10T13:45:39.674Z,17.06
2024-03-10T13:48:10.142Z,17.08
2024-03-10T13:50:37.530Z,17.10
2024-03-10T13:53:06.227Z,17.06
2024-03-10T13:55:33.724Z,17.02
2024-03-10T13:58:00.918Z,16.96
2024-03-10T14:00:27.877Z,16.89
2024-03-10T14:02:56.015Z,16.81
2024-03-10T14:05:23.664Z,16.77
2024-03-10T14:07:50.389Z,16.75
2024-03-10T14:10:20.673Z,16.72
2024-03-10T14:12:47.591Z,16.77
2024-03-10T14:15:16.630Z,16.81
2024-03-10T14:17:45.625Z,16.82
2024-03-10T14:20:15.217Z,16.80
2024-03-10T14:22:45.367Z,16.78
2024-03-10T14:25:13.983Z,16.77
2024-03-10T14:27:52.866Z,16.77
2024-03-10T14:30:26.276Z,16.74
2024-03-10T14:32:55.768Z,16.81
2024-03-10T14:35:25.959Z,16.77
2024-03-10T14:37:54.577Z,16.76
2024-03-10T14:40:24.825Z,16.77
2024-03-10T14:42:53.342Z,16.78
2024-03-10T14:45:21.087Z,16.74
2024-03-10T14:47:49.221Z,16.64
2024-03-10T14:50:21.774Z,16.62
2024-03-10T14:52:54.057Z,16.55
2024-03-10T14:55:21.221Z,16.44
2024-03-10T14:57:48.104Z,16.47
2024-03-10T15:00:40.191Z,16.48
2024-03-10T15:03:11.644Z,16.43
2024-03-10T15:05:43.967Z,16.39
2024-03-10T15:08:12.966Z,16.34
2024-03-10T15:10:42.085Z,16.27
2024-03-10T15:13:09.976Z,16.14
2024-03-10T15:15:37.710Z,16.15
2024-03-10T15:18:07.055Z,16.04
2024-03-10T15:20:34.755Z,16.03
2024-03-10T15:23:02.517Z,16.00
2024-03-10T15:25:35.441Z,15.90
2024-03-10T15:28:02.671Z,15.97
2024-03-10T15:30:29.406Z,16.00
2024-03-10T15:32:56.158Z,16.02
2024-03-10T15:35:23.169Z,15.98
2024-03-10T15:37:50.083Z,15.98
2024-03-10T15:40:20.393Z,15.88
2024-03-10T15:42:47.837Z,15.93
2024-03-10T15:45:17.579Z,15.88
2024-03-10T15:47:46.002Z,15.85
2024-03-10T15:50:15.483Z,15.79
2024-03-10T15:52:44.798Z,15.73
2024-03-10T15:55:13.409Z,15.63
2024-03-10T15:57:42.511Z,15.55
2024-03-10T16:00:13.294Z,15.46
2024-03-10T16:02:41.299Z,15.29
2024-03-10T16:05:15.563Z,15.22
2024-03-10T16:07:42.269Z,15.10
2024-03-10T16:10:09.911Z,14.93
2024-03-10T16:12:38.895Z,14.77
2024-03-10T16:15:12.919Z,14.54
2024-03-10T16:17:39.980Z,14.43
2024-03-10T16:20:15.692Z,14.33
2024-03-10T16:22:43.937Z,14.17
2024-03-10T16:25:13.043Z,14.10
2024-03-10T16:27:41.943Z,13.87
2024-03-10T16:30:13.524Z,13.85
2024-03-10T16:32:41.028Z,13.73
2024-03-10T16:35:09.354Z,13.63
2024-03-10T16:37:38.666Z,13.53
2024-03-10T16:40:15.777Z,13.46
2024-03-10T16:42:46.082Z,13.41
2024-03-10T16:45:17.656Z,13.34
2024-03-10T16:47:49.593Z,13.31
2024-03-10T16:50:26.232Z,13.25
2024-03-10T16:52:55.124Z,13.12
2024-03-10T16:55:22.151Z,13.04
2024-03-10T16:57:49.192Z,12.91
2024-03-10T17:00:16.309Z,12.92
2024-03-10T17:02:47.244Z,12.89
2024-03-10T17:05:18.081Z,12.82
2024-03-10T17:07:45.488Z,12.65
2024-03-10T17:10:14.117Z,12.49
2024-03-10T17:12:41.996Z,12.51
2024-03-10T17:15:17.626Z,12.37
2024-03-10T17:17:46.201Z,12.27
2024-03-10T17:20:14.171Z,12.17
2024-03-10T17:22:41.988Z,12.06
2024-03-10T17:25:10.555Z,11.98
2024-03-10T17:27:38.440Z,11.72
2024-03-10T17:30:07.990Z,11.61
2024-03-10T17:32:36.152Z,11.61
2024-03-10T17:35:04.981Z,11.54
2024-03-10T17:37:31.879Z,11.34
2024-03-10T17:39:58.746Z,11.30
2024-03-10T17:42:31.754Z,11.26
2024-03-10T17:44:59.109Z,11.17
2024-03-10T17:47:26.219Z,11.06
2024-03-10T17:49:53.834Z,11.00
2024-03-10T17:52:21.898Z,10.80
2024-03-10T17:54:48.719Z,10.87
2024-03-10T17:57:15.784Z,10.75
2024-03-10T17:59:42.577Z,10.70
2024-03-10T18:02:09.749Z,10.75
2024-03-10T18:04:36.521Z,10.75
2024-03-10T18:07:07.061Z,10.68
2024-03-10T18:09:34.428Z,10.68
2024-03-10T18:12:01.936Z,10.56
2024-03-10T18:14:29.162Z,10.55
2024-03-10T18:16:56.158Z,10.55
2024-03-10T18:19:23.500Z,10.54
2024-03-10T18:21:51.066Z,10.32
2024-03-10T18:24:19.251Z,10.35
2024-03-10T18:26:47.382Z,10.37
2024-03-10T18:29:16.628Z,10.25
2024-03-10T18:31:44.003Z,10.12
2024-03-10T18:34:11.755Z,10.14
2024-03-10T18:36:39.785Z,9.83
2024-03-10T18:39:14.264Z,9.99
2024-03-10T18:41:41.728Z,9.93
2024-03-10T18:44:09.140Z,9.86
2024-03-10T18:46:37.100Z,9.76
2024-03-10T18:49:05.410Z,9.16
2024-03-10T18:51:32.390Z,9.51
2024-03-10T18:53:59.290Z,9.36
2024-03-10T18:56:28.100Z,9.34
2024-03-10T18:58:56.875Z,9.22
2024-03-10T19:01:24.072Z,9.12
2024-03-10T19:03:51.506Z,9.06
2024-03-10T19:06:19.695Z,8.93
2024-03-10T19:08:47.527Z,8.89
2024-03-10T19:11:14.577Z,8.72
2024-03-10T19:13:42.470Z,8.65
2024-03-10T19:16:10.954Z,8.53
2024-03-10T19:18:38.509Z,8.30
2024-03-10T19:21:07.337Z,8.32
2024-03-10T19:23:35.652Z,8.27
2024-03-10T19:26:06.126Z,8.11
2024-03-10T19:28:34.223Z,8.08
2024-03-10T19:31:05.901Z,8.04
2024-03-10T19:33:33.750Z,7.97
2024-03-10T19:36:02.809Z,7.90
2024-03-10T19:38:30.140Z,7.76
2024-03-10T19:40:57.267Z,7.70
2024-03-10T19:43:24.120Z,7.71
2024-03-10T19:45:51.181Z,7.57
2024-03-10T19:48:20.990Z,7.62
2024-03-10T19:50:49.698Z,7.49
2024-03-10T19:53:20.569Z,7.44
2024-03-10T19:55:52.301Z,7.44
2024-03-10T19:58:19.502Z,7.42
2024-03-10T20:00:49.582Z,7.37
2024-03-10T20:03:16.704Z,7.32
2024-03-10T20:05:43.937Z,7.25
2024-03-10T20:08:11.815Z,7.17
2024-03-10T20:10:38.590Z,7.10
2024-03-10T20:13:05.420Z,6.97
2024-03-10T20:15:32.409Z,6.98
2024-03-10T20:17:59.999Z,6.95
2024-03-10T20:20:27.250Z,6.92
2024-03-10T20:22:59.811Z,6.90
2024-03-10T20:25:27.800Z,6.80
2024-03-10T20:27:57.802Z,6.86
2024-03-10T20:30:26.145Z,6.77
2024-03-10T20:32:53.150Z,6.75
2024-03-10T20:35:21.747Z,6.69
2024-03-10T20:37:48.735Z,6.79
2024-03-10T20:40:16.685Z,6.76
2024-03-10T20:42:44.357Z,6.80
2024-03-10T20:45:12.918Z,6.81
2024-03-10T20:47:42.731Z,6.83
2024-03-10T20:50:10.763Z,6.82
2024-03-10T20:52:37.525Z,6.83
2024-03-10T20:55:05.723Z,6.86
2024-03-10T20:57:33.015Z,6.95
2024-03-10T21:00:05.283Z,6.91
2024-03-10T21:02:32.285Z,6.98
2024-03-10T21:04:59.088Z,6.93
2024-03-10T21:07:25.823Z,7.08
2024-03-10T21:09:52.717Z,7.08
2024-03-10T21:12:19.652Z,7.08
2024-03-10T21:14:46.442Z,7.11
2024-03-10T21:17:13.941Z,7.15
2024-03-10T21:19:41.874Z,7.14
2024-03-10T21:22:10.612Z,7.08
2024-03-10T21:24:37.450Z,7.14
2024-03-10T21:27:04.490Z,7.20
2024-03-10T21:29:31.650Z,7.12
2024-03-10T21:31:58.608Z,7.04
2024-03-10T21:34:25.834Z,7.08
2024-03-10T21:36:53.827Z,7.04
2024-03-10T21:39:21.556Z,7.00
2024-03-10T21:41:48.875Z,6.96
2024-03-10T21:44:16.489Z,6.94
2024-03-10T21:46:43.961Z,6.96
2024-03-10T21:49:10.817Z,6.94
2024-03-10T21:51:37.932Z,6.90
2024-03-10T21:54:06.433Z,6.94
2024-03-10T21:56:34.533Z,6.85
2024-03-10T21:59:02.177Z,6.93
2024-03-10T22:01:31.394Z,6.89
2024-03-10T22:03:58.789Z,6.91
2024-03-10T22:06:25.798Z,6.83
2024-03-10T22:08:53.039Z,6.92
2024-03-10T22:11:20.696Z,6.77
2024-03-10T22:13:47.917Z,6.81
2024-03-10T22:16:14.637Z,6.81
2024-03-10T22:18:41.683Z,6.83
2024-03-10T22:21:08.519Z,6.82
2024-03-10T22:23:35.603Z,6.84
2024-03-10T22:26:05.028Z,6.87
2024-03-10T22:28:31.858Z,6.77
2024-03-10T22:30:58.858Z,6.89
2024-03-10T22:33:25.618Z,6.91
2024-03-10T22:35:52.464Z,6.91
2024-03-10T22:38:23.250Z,6.89
2024-03-10T22:40:51.045Z,6.93
2024-03-10T22:43:18.020Z,6.94
2024-03-10T22:45:45.111Z,6.99
2024-03-10T22:48:12.071Z,6.97
2024-03-10T22:50:39.199Z,7.02
2024-03-10T22:53:07.401Z,7.05
2024-03-10T22:55:34.790Z,7.02
2024-03-10T22:58:02.454Z,7.13
2024-03-10T23:00:34.569Z,7.17
2024-03-10T23:03:05.107Z,7.18
2024-03-10T23:05:32.932Z,7.14
2024-03-10T23:08:05.594Z,7.26
2024-03-10T23:10:33.222Z,7.31
2024-03-10T23:13:00.031Z,7.31
2024-03-10T23:15:27.617Z,7.38
2024-03-10T23:17:54.604Z,7.35
2024-03-10T23:20:24.382Z,7.38
2024-03-10T23:22:56.025Z,7.48
2024-03-10T23:25:26.901Z,7.50
2024-03-10T23:27:55.313Z,7.46
2024-03-10T23:30:24.424Z,7.50
2024-03-10T23:32:54.339Z,7.64
2024-03-10T23:35:22.069Z,7.68
2024-03-10T23:37:51.491Z,7.72
2024-03-10T23:40:20.465Z,7.75
2024-03-10T23:42:50.699Z,7.78
2024-03-10T23:45:20.592Z,7.83
2024-03-10T23:47:51.626Z,7.83
2024-03-10T23:50:21.089Z,7.88
2024-03-10T23:52:50.395Z,7.96
2024-03-10T23:55:17.643Z,7.96
2024-03-10T23:57:44.396Z,8.02
